^^
Grace C. Lehan Memorial Weather Station Historical Data
Daily Summary for January 26, 2022 Units:  English    Metric   Both
Daily Weekly Monthly Yearly
  High: Low: Average:
Temperature: 27.7 °F 15.2 °F 21.8 °F
Dew Point: 14.7 °F 1.2 °F 6.8 °F
Humidity: 74.8% 33.2% 53%
Wind Speed: 13.3mph 0mph 3mph
Wind Gust: 24mph - -
Wind- - NW
Pressure: 30.45 in 30.14 in -
Precipitation: 0.00 in    
 
 
Tabular Data for January 26, 2022
Time Temperature Dew Point Pressure Wind Wind Speed Wind Gust Humidity Rainfall Rate (Hourly) solar
00:04 25.2 °F 14.7 °F 30.14 in NW 2.8 mph 16 mph 64% 0.00 in 0 W/m2
00:09 25.1 °F 14.6 °F 30.14 in NW 5 mph 11 mph 64% 0.00 in 0 W/m2
00:14 24.9 °F 14.5 °F 30.14 in NW 1.9 mph 11 mph 64% 0.00 in 0 W/m2
00:19 24.8 °F 14.6 °F 30.14 in NW 0.7 mph 11 mph 64.4% 0.00 in 0 W/m2
00:24 24.7 °F 14.6 °F 30.14 in NW 0.9 mph 11 mph 65% 0.00 in 0 W/m2
00:29 24.6 °F 14.5 °F 30.15 in NW 1.9 mph 11 mph 65% 0.00 in 0 W/m2
00:34 24.4 °F 14.6 °F 30.14 in NW 1.3 mph 11 mph 65.7% 0.00 in 0 W/m2
00:39 24.3 °F 14.6 °F 30.15 in WNW 1.1 mph 7 mph 66% 0.00 in 0 W/m2
00:44 24.2 °F 14.5 °F 30.15 in NW 3.6 mph 12 mph 66.2% 0.00 in 0 W/m2
00:49 24.1 °F 14.6 °F 30.14 in NW 3.5 mph 12 mph 66.8% 0.00 in 0 W/m2
00:54 24 °F 14.7 °F 30.15 in NW 3.5 mph 12 mph 67% 0.00 in 0 W/m2
00:59 23.9 °F 14.6 °F 30.15 in NNW 0.9 mph 12 mph 67% 0.00 in 0 W/m2
01:04 23.9 °F 14.5 °F 30.15 in NW 2.1 mph 12 mph 67% 0.00 in 0 W/m2
01:09 23.7 °F 14.4 °F 30.15 in NW 0.7 mph 10 mph 67% 0.00 in 0 W/m2
01:14 23.6 °F 14.5 °F 30.15 in WNW 1.4 mph 10 mph 67.5% 0.00 in 0 W/m2
01:19 23.5 °F 14.5 °F 30.15 in WNW 1.4 mph 10 mph 68% 0.00 in 0 W/m2
01:24 23.4 °F 14.4 °F 30.15 in WNW 1.8 mph 10 mph 68% 0.00 in 0 W/m2
01:29 23.4 °F 14.4 °F 30.15 in WNW 0.9 mph 10 mph 68% 0.00 in 0 W/m2
01:34 23.3 °F 14.3 °F 30.15 in WNW 0.8 mph 10 mph 68% 0.00 in 0 W/m2
01:39 23.2 °F 14.4 °F 30.15 in WNW 0.2 mph 6 mph 68.7% 0.00 in 0 W/m2
01:44 23.1 °F 14.4 °F 30.15 in Calm   6 mph 69% 0.00 in 0 W/m2
01:49 23 °F 14.3 °F 30.16 in WNW 0.2 mph 6 mph 69% 0.00 in 0 W/m2
01:54 22.9 °F 14.2 °F 30.16 in WNW 0.5 mph 6 mph 69% 0.00 in 0 W/m2
01:59 22.8 °F 14.1 °F 30.16 in WNW 0.2 mph 6 mph 69% 0.00 in 0 W/m2
02:04 22.7 °F 14.1 °F 30.16 in WNW 0.3 mph 6 mph 69.1% 0.00 in 0 W/m2
02:09 22.6 °F 14.3 °F 30.16 in WNW 0.3 mph 3 mph 70% 0.00 in 0 W/m2
02:14 22.5 °F 14.2 °F 30.17 in WNW 0.2 mph 4 mph 70% 0.00 in 0 W/m2
02:19 22.5 °F 14.2 °F 30.17 in WNW 0.6 mph 4 mph 70% 0.00 in 0 W/m2
02:24 22.4 °F 14.1 °F 30.17 in Calm   4 mph 70% 0.00 in 0 W/m2
02:29 22.2 °F 14 °F 30.17 in Calm   4 mph 70.2% 0.00 in 0 W/m2
02:34 22.2 °F 14.1 °F 30.17 in WNW 0.5 mph 4 mph 70.8% 0.00 in 0 W/m2
02:39 22.1 °F 14.1 °F 30.17 in WNW 0.7 mph 3 mph 71% 0.00 in 0 W/m2
02:44 22 °F 14 °F 30.17 in WNW 2 mph 7 mph 71% 0.00 in 0 W/m2
02:49 21.9 °F 14 °F 30.18 in WNW 0.5 mph 7 mph 71% 0.00 in 0 W/m2
02:54 21.9 °F 14.2 °F 30.18 in WNW 0.1 mph 7 mph 71.7% 0.00 in 0 W/m2
02:59 21.8 °F 14.2 °F 30.18 in WNW 0.1 mph 7 mph 72% 0.00 in 0 W/m2
03:04 21.8 °F 14.2 °F 30.18 in Calm   7 mph 72% 0.00 in 0 W/m2
03:09 21.8 °F 14.2 °F 30.18 in Calm     72% 0.00 in 0 W/m2
03:14 21.7 °F 14.1 °F 30.18 in Calm     72% 0.00 in 0 W/m2
03:19 21.6 °F 14 °F 30.18 in Calm     72% 0.00 in 0 W/m2
03:24 21.6 °F 14.2 °F 30.18 in Calm     72.9% 0.00 in 0 W/m2
03:29 21.5 °F 14.2 °F 30.18 in Calm     73% 0.00 in 0 W/m2
03:34 21.4 °F 14.1 °F 30.18 in Calm     73% 0.00 in 0 W/m2
03:39 21.3 °F 14 °F 30.18 in Calm   2 mph 73% 0.00 in 0 W/m2
03:44 21.2 °F 13.9 °F 30.19 in Calm   2 mph 73% 0.00 in 0 W/m2
03:49 21.1 °F 13.9 °F 30.19 in Calm   2 mph 73.1% 0.00 in 0 W/m2
03:54 21 °F 14.1 °F 30.19 in Calm   2 mph 74% 0.00 in 0 W/m2
03:59 20.9 °F 14 °F 30.19 in Calm   2 mph 74% 0.00 in 0 W/m2
04:00 20.9 °F 13.9 °F 30.19 in Calm   2 mph 74% 0.00 in 0 W/m2
04:09 20.7 °F 13.8 °F 30.20 in Calm     74% 0.00 in 0 W/m2
04:14 20.6 °F 13.7 °F 30.20 in WNW 0.1 mph 2 mph 74% 0.00 in 0 W/m2
04:19 20.6 °F 13.9 °F 30.20 in NW 0.6 mph 4 mph 74.8% 0.00 in 0 W/m2
04:24 20.5 °F 13.6 °F 30.20 in NW 1.4 mph 4 mph 74.1% 0.00 in 0 W/m2
04:29 20.5 °F 13.3 °F 30.20 in NW 1.2 mph 5 mph 73.3% 0.00 in 0 W/m2
04:34 20.5 °F 13 °F 30.20 in Calm   5 mph 72.1% 0.00 in 0 W/m2
04:39 20.5 °F 12.9 °F 30.20 in NW 0.5 mph 4 mph 72% 0.00 in 0 W/m2
04:44 20.4 °F 12.8 °F 30.20 in Calm   4 mph 72% 0.00 in 0 W/m2
04:49 20.4 °F 12.8 °F 30.21 in Calm   4 mph 72% 0.00 in 0 W/m2
04:54 20.3 °F 12.7 °F 30.21 in Calm   4 mph 72% 0.00 in 0 W/m2
04:59 20.1 °F 12.6 °F 30.21 in NW 1.8 mph 12 mph 72% 0.00 in 0 W/m2
05:04 20 °F 12.1 °F 30.21 in NW 1.5 mph 13 mph 71% 0.00 in 0 W/m2
05:09 20 °F 11.8 °F 30.21 in NNW 0.6 mph 13 mph 70% 0.00 in 0 W/m2
05:14 20 °F 11.5 °F 30.22 in NW 1.6 mph 13 mph 69.2% 0.00 in 0 W/m2
05:19 20 °F 11.2 °F 30.22 in NW 2 mph 13 mph 68.2% 0.00 in 0 W/m2
05:24 20 °F 10.9 °F 30.23 in NW 0.5 mph 13 mph 67.2% 0.00 in 0 W/m2
05:29 19.9 °F 10.7 °F 30.23 in NW 0.5 mph 13 mph 67% 0.00 in 0 W/m2
05:34 19.9 °F 10.7 °F 30.23 in NW 1.5 mph 13 mph 66.9% 0.00 in 0 W/m2
05:39 19.8 °F 10.3 °F 30.23 in NW 2.6 mph 10 mph 66% 0.00 in 0 W/m2
05:44 19.9 °F 10.1 °F 30.23 in NW 1 mph 10 mph 65.1% 0.00 in 0 W/m2
05:49 19.9 °F 10.2 °F 30.23 in NW 2.6 mph 10 mph 65.3% 0.00 in 0 W/m2
05:54 19.8 °F 10 °F 30.23 in NW 2.2 mph 11 mph 65% 0.00 in 0 W/m2
05:59 19.8 °F 9.8 °F 30.23 in NW 4.6 mph 12 mph 64.4% 0.00 in 0 W/m2
06:04 19.9 °F 9.7 °F 30.24 in NW 0.8 mph 12 mph 64% 0.00 in 0 W/m2
06:09 19.9 °F 9.7 °F 30.24 in NW 0.9 mph 6 mph 64% 0.00 in 0 W/m2
06:14 19.8 °F 9.6 °F 30.24 in NW 0.4 mph 6 mph 64% 0.00 in 0 W/m2
06:19 19.7 °F 9.6 °F 30.25 in NW 0.1 mph 6 mph 64% 0.00 in 0 W/m2
06:24 19.7 °F 9.5 °F 30.25 in NW 0.1 mph 6 mph 64% 0.00 in 0 W/m2
06:29 19.5 °F 9.5 °F 30.25 in Calm   6 mph 64.4% 0.00 in 0 W/m2
06:34 19.4 °F 9.6 °F 30.25 in Calm   6 mph 65% 0.00 in 0 W/m2
06:39 19.2 °F 9.7 °F 30.25 in NW 0.5 mph 3 mph 65.9% 0.00 in 0 W/m2
06:44 19.1 °F 9.6 °F 30.26 in NW 0.5 mph 4 mph 66.2% 0.00 in 0 W/m2
06:49 18.9 °F 9.8 °F 30.26 in NW 1.1 mph 6 mph 67% 0.00 in 0 W/m2
06:54 18.8 °F 9.5 °F 30.26 in NW 0.1 mph 6 mph 66.5% 0.00 in 0 W/m2
06:59 18.7 °F 9.6 °F 30.26 in Calm   6 mph 67% 0.00 in 0 W/m2
07:04 18.6 °F 9.4 °F 30.26 in Calm   6 mph 67% 0.00 in 0 W/m2
07:09 18.4 °F 9.4 °F 30.26 in Calm     67.3% 0.00 in 5 W/m2
07:14 18.3 °F 9.5 °F 30.26 in Calm     68% 0.00 in 7 W/m2
07:19 18.1 °F 9.5 °F 30.27 in Calm     68.3% 0.00 in 9 W/m2
07:24 18 °F 9.7 °F 30.27 in Calm     69.2% 0.00 in 11 W/m2
07:29 17.9 °F 9.8 °F 30.27 in Calm     70% 0.00 in 16 W/m2
07:34 17.9 °F 9.8 °F 30.27 in Calm     70% 0.00 in 30 W/m2
07:39 17.9 °F 10.1 °F 30.27 in Calm     71% 0.00 in 46 W/m2
07:44 18.1 °F 10.3 °F 30.27 in Calm     71% 0.00 in 46 W/m2
07:49 18.4 °F 10.4 °F 30.28 in NW 0.2 mph 3 mph 70.4% 0.00 in 33 W/m2
07:54 18.7 °F 10.6 °F 30.28 in WNW 1.5 mph 9 mph 70% 0.00 in 30 W/m2
07:59 19 °F 10.6 °F 30.28 in WNW 1.5 mph 9 mph 69.1% 0.00 in 53 W/m2
08:09 19.7 °F 10.3 °F 30.28 in WNW 2.6 mph 7 mph 66.5% 0.00 in 60 W/m2
08:14 19.9 °F 10.2 °F 30.28 in NW 1.4 mph 9 mph 65.2% 0.00 in 60 W/m2
08:19 20.2 °F 10.2 °F 30.28 in WNW 2.5 mph 11 mph 64.6% 0.00 in 60 W/m2
08:24 20.4 °F 9.6 °F 30.28 in WNW 4.7 mph 11 mph 62.5% 0.00 in 207 W/m2
08:29 20.6 °F 9.7 °F 30.28 in WNW 3.1 mph 11 mph 62% 0.00 in 218 W/m2
08:34 21.2 °F 9.8 °F 30.28 in WNW 4.2 mph 11 mph 60.9% 0.00 in 206 W/m2
08:39 21.8 °F 9.9 °F 30.28 in WNW 3.5 mph 11 mph 59.5% 0.00 in 241 W/m2
08:44 22.4 °F 10.2 °F 30.29 in WNW 4.1 mph 11 mph 58.8% 0.00 in 279 W/m2
08:49 23 °F 10.2 °F 30.29 in WNW 3.3 mph 11 mph 57.4% 0.00 in 292 W/m2
08:54 23.6 °F 10.5 °F 30.29 in West 1.3 mph 11 mph 56.7% 0.00 in 306 W/m2
08:59 24.2 °F 10.7 °F 30.29 in WNW 4.2 mph 13 mph 55.7% 0.00 in 316 W/m2
09:04 24.4 °F 10.2 °F 30.29 in WNW 4.3 mph 13 mph 54% 0.00 in 329 W/m2
09:09 24.7 °F 10.2 °F 30.29 in WNW 3.5 mph 12 mph 53.5% 0.00 in 339 W/m2
09:14 24.8 °F 10.1 °F 30.30 in WNW 3.6 mph 12 mph 53% 0.00 in 348 W/m2
09:19 25 °F 10.1 °F 30.30 in WNW 2.7 mph 12 mph 52.5% 0.00 in 357 W/m2
09:24 25.3 °F 10.2 °F 30.30 in WNW 5.2 mph 12 mph 52.2% 0.00 in 366 W/m2
09:29 25.5 °F 9.8 °F 30.30 in NW 3.1 mph 12 mph 50.6% 0.00 in 374 W/m2
09:34 25.6 °F 9.2 °F 30.30 in NW 4.2 mph 12 mph 49.3% 0.00 in 366 W/m2
09:39 25.4 °F 8.1 °F 30.30 in NW 8.2 mph 19 mph 47.4% 0.00 in 260 W/m2
09:44 24.7 °F 7.3 °F 30.31 in NW 6.9 mph 19 mph 46.7% 0.00 in 383 W/m2
09:49 24.3 °F 6.6 °F 30.31 in NW 6.9 mph 19 mph 46.1% 0.00 in 401 W/m2
09:54 24.1 °F 6 °F 30.31 in WNW 7.9 mph 19 mph 45.3% 0.00 in 388 W/m2
09:59 23.9 °F 5.9 °F 30.31 in WNW 3.5 mph 19 mph 45.4% 0.00 in 299 W/m2
10:04 23.9 °F 5.9 °F 30.31 in WNW 6.3 mph 19 mph 45.6% 0.00 in 227 W/m2
10:09 23.9 °F 6.2 °F 30.31 in NW 4.2 mph 13 mph 46% 0.00 in 290 W/m2
10:14 24.2 °F 6.7 °F 30.31 in NW 5.2 mph 13 mph 46.6% 0.00 in 457 W/m2
10:19 24.5 °F 5.7 °F 30.31 in NW 6.8 mph 15 mph 43.9% 0.00 in 457 W/m2
10:24 24.7 °F 5.4 °F 30.31 in NW 3.9 mph 15 mph 43% 0.00 in 424 W/m2
10:29 25 °F 5.8 °F 30.31 in NW 5.4 mph 15 mph 43.2% 0.00 in 455 W/m2
10:34 25.4 °F 6 °F 30.31 in WNW 4.6 mph 15 mph 43% 0.00 in 501 W/m2
10:39 25.9 °F 6.4 °F 30.31 in WNW 3.6 mph 15 mph 42.8% 0.00 in 492 W/m2
10:44 26.3 °F 6.3 °F 30.30 in WNW 7 mph 15 mph 42% 0.00 in 519 W/m2
10:49 26.6 °F 6.3 °F 30.31 in NW 6.3 mph 16 mph 41.4% 0.00 in 526 W/m2
10:54 27.1 °F 6.2 °F 30.31 in NW 4.1 mph 16 mph 40.5% 0.00 in 531 W/m2
10:59 27.4 °F 6.4 °F 30.30 in WNW 5.9 mph 16 mph 40.3% 0.00 in 538 W/m2
11:04 27.5 °F 6.5 °F 30.30 in WNW 4 mph 16 mph 40.3% 0.00 in 538 W/m2
11:09 27.6 °F 6.7 °F 30.29 in WNW 4.8 mph 13 mph 40.4% 0.00 in 378 W/m2
11:14 27.7 °F 6.2 °F 30.30 in NW 3.3 mph 13 mph 39.3% 0.00 in 181 W/m2
11:19 27.7 °F 5.9 °F 30.30 in NW 7.6 mph 19 mph 38.9% 0.00 in 207 W/m2
11:24 27.3 °F 4.9 °F 30.30 in NW 9.4 mph 19 mph 37.6% 0.00 in 264 W/m2
11:29 26.8 °F 3.9 °F 30.29 in NW 9.2 mph 19 mph 36.7% 0.00 in 330 W/m2
11:34 26.4 °F 3.5 °F 30.29 in NW 10.5 mph 19 mph 36.8% 0.00 in 455 W/m2
11:39 26.1 °F 3.5 °F 30.29 in NW 10 mph 19 mph 37.2% 0.00 in 364 W/m2
11:44 26 °F 3.9 °F 30.29 in NW 5 mph 19 mph 37.9% 0.00 in 257 W/m2
11:49 26.2 °F 4.3 °F 30.28 in NW 10 mph 21 mph 38.4% 0.00 in 267 W/m2
11:54 26.2 °F 3.5 °F 30.28 in NW 6.2 mph 21 mph 37% 0.00 in 102 W/m2
11:59 26.3 °F 4 °F 30.28 in NW 6.7 mph 21 mph 37.6% 0.00 in 188 W/m2
12:00 26.4 °F 4.3 °F 30.27 in WNW 7.5 mph 21 mph 38% 0.00 in 165 W/m2
12:09 26.5 °F 3.6 °F 30.28 in NW 9.9 mph 18 mph 36.7% 0.00 in 149 W/m2
12:14 26.4 °F 3 °F 30.28 in WNW 11.6 mph 18 mph 35.8% 0.00 in 179 W/m2
12:19 26.2 °F 2.7 °F 30.27 in WNW 9.5 mph 20 mph 35.7% 0.00 in 104 W/m2
12:24 26.2 °F 2.9 °F 30.27 in WNW 8.3 mph 20 mph 36% 0.00 in 167 W/m2
12:29 26.5 °F 3.5 °F 30.27 in NW 6.8 mph 20 mph 36.7% 0.00 in 204 W/m2
12:34 26.9 °F 4.2 °F 30.27 in WNW 6.4 mph 20 mph 37.3% 0.00 in 102 W/m2
12:39 27.1 °F 3.7 °F 30.27 in WNW 9.4 mph 19 mph 36% 0.00 in 146 W/m2
12:44 27 °F 2.9 °F 30.27 in NW 9.6 mph 19 mph 34.8% 0.00 in 146 W/m2
12:49 26.9 °F 2.7 °F 30.27 in NW 8.9 mph 19 mph 34.6% 0.00 in 239 W/m2
12:54 26.8 °F 2.8 °F 30.27 in WNW 8.1 mph 19 mph 35% 0.00 in 260 W/m2
12:59 26.8 °F 2.8 °F 30.27 in NW 9.5 mph 20 mph 35% 0.00 in 221 W/m2
13:04 26.5 °F 2.4 °F 30.27 in NW 9.5 mph 20 mph 34.8% 0.00 in 174 W/m2
13:09 26.3 °F 2.5 °F 30.27 in WNW 6.5 mph 18 mph 35.3% 0.00 in 185 W/m2
13:14 26.3 °F 2.6 °F 30.27 in NW 6.5 mph 18 mph 35.3% 0.00 in 104 W/m2
13:19 26.5 °F 3 °F 30.27 in NW 8.4 mph 21 mph 35.8% 0.00 in 116 W/m2
13:24 26.6 °F 2.3 °F 30.27 in WNW 12.3 mph 22 mph 34.4% 0.00 in 163 W/m2
13:29 26.4 °F 2.2 °F 30.27 in NW 7.6 mph 22 mph 34.4% 0.00 in 202 W/m2
13:34 26.5 °F 2.5 °F 30.27 in NW 8.7 mph 22 mph 35% 0.00 in 179 W/m2
13:39 26.4 °F 2.5 °F 30.27 in NNW 3.8 mph 16 mph 35% 0.00 in 40 W/m2
13:44 26.6 °F 2.5 °F 30.27 in NW 8.9 mph 16 mph 34.8% 0.00 in 40 W/m2
13:49 26.6 °F 1.8 °F 30.27 in WNW 12.7 mph 20 mph 33.7% 0.00 in 174 W/m2
13:54 26.4 °F 1.4 °F 30.27 in NW 8.9 mph 20 mph 33.2% 0.00 in 202 W/m2
13:59 26.4 °F 1.8 °F 30.27 in NW 9.3 mph 20 mph 34% 0.00 in 287 W/m2
14:04 26.3 °F 1.3 °F 30.27 in NW 7.1 mph 24 mph 33.3% 0.00 in 281 W/m2
14:09 26.2 °F 1.4 °F 30.27 in NW 7 mph 24 mph 33.6% 0.00 in 207 W/m2
14:14 26.3 °F 1.8 °F 30.27 in NW 6.4 mph 24 mph 34% 0.00 in 399 W/m2
14:19 26.5 °F 2.5 °F 30.28 in NNW 6.7 mph 24 mph 35% 0.00 in 366 W/m2
14:24 26.4 °F 2 °F 30.28 in NW 11.7 mph 24 mph 34.1% 0.00 in 223 W/m2
14:29 26.2 °F 1.2 °F 30.28 in NW 13.3 mph 24 mph 33.2% 0.00 in 141 W/m2
14:34 25.9 °F 1.3 °F 30.28 in NW 10.1 mph 24 mph 33.8% 0.00 in 130 W/m2
14:39 25.7 °F 1.2 °F 30.28 in NW 6.5 mph 19 mph 34% 0.00 in 84 W/m2
14:44 25.5 °F 1.4 °F 30.28 in WNW 7.7 mph 19 mph 34.5% 0.00 in 142 W/m2
14:49 25.6 °F 1.4 °F 30.28 in WNW 10.2 mph 19 mph 34.5% 0.00 in 214 W/m2
14:54 25.5 °F 1.6 °F 30.28 in WNW 8.1 mph 19 mph 34.9% 0.00 in 257 W/m2
14:59 25.4 °F 1.8 °F 30.30 in NW 10 mph 21 mph 35.3% 0.00 in 239 W/m2
15:04 25.4 °F 1.8 °F 30.29 in NW 6.4 mph 21 mph 35.3% 0.00 in 32 W/m2
15:09 25.3 °F 1.5 °F 30.30 in NW 10.9 mph 22 mph 35.1% 0.00 in 30 W/m2
15:14 25.2 °F 1.5 °F 30.29 in WNW 8.6 mph 22 mph 35.2% 0.00 in 30 W/m2
15:19 25.1 °F 1.9 °F 30.30 in NW 7.5 mph 22 mph 36% 0.00 in 30 W/m2
15:24 25.1 °F 2 °F 30.30 in WNW 7.4 mph 22 mph 36.2% 0.00 in 28 W/m2
15:29 25 °F 2.4 °F 30.30 in NW 5.8 mph 22 mph 37% 0.00 in 26 W/m2
15:34 24.9 °F 2.4 °F 30.31 in NW 8.1 mph 22 mph 37% 0.00 in 26 W/m2
15:39 24.8 °F 2.2 °F 30.31 in NW 7.7 mph 16 mph 37% 0.00 in 25 W/m2
15:44 24.7 °F 2.2 °F 30.32 in WNW 7.2 mph 17 mph 37% 0.00 in 25 W/m2
15:49 24.6 °F 2.1 °F 30.31 in NNW 6.3 mph 17 mph 37% 0.00 in 23 W/m2
15:54 24.5 °F 2 °F 30.31 in NW 4.9 mph 17 mph 37.2% 0.00 in 23 W/m2
15:59 24.3 °F 2.1 °F 30.31 in NW 3.3 mph 17 mph 37.5% 0.00 in 21 W/m2
16:00 24.3 °F 2.4 °F 30.31 in NW 1 mph 17 mph 38% 0.00 in 19 W/m2
16:09 24.1 °F 2.5 °F 30.32 in NNW 3.7 mph 13 mph 38.5% 0.00 in 19 W/m2
16:13 24 °F 2.1 °F 30.32 in NW 5 mph 13 mph 38% 0.00 in 18 W/m2
16:19 23.8 °F 2.4 °F 30.32 in NW 4.1 mph 13 mph 38.9% 0.00 in 18 W/m2
16:24 23.6 °F 2.1 °F 30.32 in NW 8.6 mph 18 mph 38.6% 0.00 in 16 W/m2
16:29 23.5 °F 2 °F 30.32 in NW 5.7 mph 18 mph 38.5% 0.00 in 14 W/m2
16:34 23.5 °F 2.3 °F 30.32 in NW 3.1 mph 18 mph 39.2% 0.00 in 12 W/m2
16:39 23.3 °F 2.3 °F 30.33 in WNW 6.3 mph 14 mph 39.5% 0.00 in 11 W/m2
16:44 23.2 °F 1.9 °F 30.33 in NW 5.7 mph 14 mph 39% 0.00 in 9 W/m2
16:49 23 °F 1.8 °F 30.33 in WNW 3 mph 14 mph 39.1% 0.00 in 7 W/m2
16:54 22.9 °F 2.2 °F 30.34 in NW 3.6 mph 14 mph 40% 0.00 in 5 W/m2
16:59 22.8 °F 2.1 °F 30.34 in WNW 5.1 mph 14 mph 40% 0.00 in 0 W/m2
17:04 22.6 °F 1.9 °F 30.34 in NW 5.1 mph 14 mph 40% 0.00 in 0 W/m2
17:09 22.4 °F 2.3 °F 30.34 in NW 6.1 mph 15 mph 41% 0.00 in 0 W/m2
17:14 22.3 °F 2.1 °F 30.34 in NW 6.3 mph 15 mph 40.8% 0.00 in 0 W/m2
17:19 22.1 °F 2 °F 30.34 in NW 3.9 mph 15 mph 41% 0.00 in 0 W/m2
17:24 22 °F 1.9 °F 30.35 in NW 5.5 mph 15 mph 41% 0.00 in 0 W/m2
17:29 21.9 °F 2.2 °F 30.35 in NW 3.6 mph 15 mph 41.6% 0.00 in 0 W/m2
17:34 21.8 °F 2.3 °F 30.36 in NW 2.2 mph 15 mph 42% 0.00 in 0 W/m2
17:39 21.7 °F 2.4 °F 30.36 in NNW 2.6 mph 11 mph 42.5% 0.00 in 0 W/m2
17:44 21.6 °F 2.6 °F 30.37 in NW 3.5 mph 12 mph 43% 0.00 in 0 W/m2
17:49 21.5 °F 2.5 °F 30.37 in NW 3.4 mph 12 mph 43% 0.00 in 0 W/m2
17:54 21.4 °F 2.4 °F 30.38 in NW 2.9 mph 12 mph 43% 0.00 in 0 W/m2
17:59 21.3 °F 2.5 °F 30.38 in NW 3.2 mph 12 mph 43.5% 0.00 in 0 W/m2
18:04 21.3 °F 2.8 °F 30.38 in WNW 3.6 mph 12 mph 44% 0.00 in 0 W/m2
18:09 21.2 °F 2.7 °F 30.38 in WNW 1.1 mph 9 mph 44% 0.00 in 0 W/m2
18:14 21.1 °F 2.6 °F 30.38 in WNW 0.2 mph 9 mph 44% 0.00 in 0 W/m2
18:19 20.9 °F 2.6 °F 30.39 in Calm   9 mph 44.3% 0.00 in 0 W/m2
18:24 20.8 °F 3 °F 30.39 in WNW 0.1 mph 9 mph 45.4% 0.00 in 0 W/m2
18:29 20.7 °F 3.1 °F 30.39 in WNW 0.1 mph 9 mph 45.8% 0.00 in 0 W/m2
18:34 20.5 °F 3 °F 30.39 in Calm   9 mph 46% 0.00 in 0 W/m2
18:39 20.3 °F 2.9 °F 30.40 in Calm     46% 0.00 in 0 W/m2
18:44 20.2 °F 2.9 °F 30.40 in WNW 0.2 mph 1 mph 46.4% 0.00 in 0 W/m2
18:49 20 °F 3 °F 30.40 in WNW 0.1 mph 1 mph 47% 0.00 in 0 W/m2
18:54 19.8 °F 3.2 °F 30.40 in Calm   1 mph 47.8% 0.00 in 0 W/m2
18:59 19.6 °F 3.1 °F 30.40 in WNW 0.5 mph 4 mph 48% 0.00 in 0 W/m2
19:04 19.5 °F 3.4 °F 30.41 in WNW 0.4 mph 6 mph 48.9% 0.00 in 0 W/m2
19:09 19.3 °F 3.3 °F 30.41 in WNW 0.2 mph 6 mph 49% 0.00 in 0 W/m2
19:14 19.2 °F 3.4 °F 30.41 in WNW 2.6 mph 6 mph 49.4% 0.00 in 0 W/m2
19:19 19.1 °F 3.4 °F 30.41 in WNW 1.4 mph 6 mph 49.7% 0.00 in 0 W/m2
19:24 19.1 °F 3.5 °F 30.41 in WNW 3 mph 9 mph 50% 0.00 in 0 W/m2
19:29 19.1 °F 3.5 °F 30.42 in WNW 1.3 mph 9 mph 50% 0.00 in 0 W/m2
19:34 19.1 °F 3.5 °F 30.42 in WNW 1.2 mph 9 mph 50% 0.00 in 0 W/m2
19:39 19 °F 3.4 °F 30.42 in WNW 1.5 mph 7 mph 50% 0.00 in 0 W/m2
19:44 19 °F 3.3 °F 30.42 in WNW 1.3 mph 7 mph 49.7% 0.00 in 0 W/m2
19:49 19 °F 3.4 °F 30.42 in NW 0.6 mph 7 mph 50% 0.00 in 0 W/m2
19:54 18.9 °F 3.3 °F 30.42 in NW 0.9 mph 7 mph 50% 0.00 in 0 W/m2
19:59 18.8 °F 3.3 °F 30.42 in NW 0.5 mph 7 mph 50% 0.00 in 0 W/m2
20:09 18.6 °F 3.2 °F 30.43 in Calm     50.3% 0.00 in 0 W/m2
20:14 18.5 °F 3.4 °F 30.43 in Calm   1 mph 51% 0.00 in 0 W/m2
20:19 18.4 °F 3.3 °F 30.43 in Calm   1 mph 51% 0.00 in 0 W/m2
20:24 18.3 °F 3.5 °F 30.43 in Calm   1 mph 51.8% 0.00 in 0 W/m2
20:29 18.1 °F 3.5 °F 30.43 in Calm   1 mph 52% 0.00 in 0 W/m2
20:34 18 °F 3.7 °F 30.43 in Calm   1 mph 52.8% 0.00 in 0 W/m2
20:39 17.8 °F 3.6 °F 30.43 in Calm     53% 0.00 in 0 W/m2
20:44 17.6 °F 3.5 °F 30.43 in NW 0.1 mph 2 mph 53.3% 0.00 in 0 W/m2
20:49 17.4 °F 3.8 °F 30.44 in WNW 1.8 mph 9 mph 54.5% 0.00 in 0 W/m2
20:54 17.2 °F 3.8 °F 30.44 in WNW 1.5 mph 9 mph 55% 0.00 in 0 W/m2
20:59 17.1 °F 3.7 °F 30.44 in WNW 2.2 mph 9 mph 54.8% 0.00 in 0 W/m2
21:04 17.1 °F 3.4 °F 30.44 in WNW 0.4 mph 9 mph 54.1% 0.00 in 0 W/m2
21:09 17.2 °F 3.4 °F 30.44 in WNW 0.3 mph 4 mph 54% 0.00 in 0 W/m2
21:14 17.2 °F 3.4 °F 30.44 in WNW 0.3 mph 4 mph 54% 0.00 in 0 W/m2
21:19 17.2 °F 3.4 °F 30.44 in WNW 0.4 mph 6 mph 54% 0.00 in 0 W/m2
21:24 17.1 °F 3.3 °F 30.43 in Calm   6 mph 54% 0.00 in 0 W/m2
21:29 17.1 °F 3.3 °F 30.43 in Calm   6 mph 54% 0.00 in 0 W/m2
21:34 17 °F 3.4 °F 30.43 in Calm   6 mph 54.5% 0.00 in 0 W/m2
21:39 16.8 °F 3.5 °F 30.44 in Calm   1 mph 55% 0.00 in 0 W/m2
21:44 16.7 °F 3.4 °F 30.44 in WNW 0.1 mph 2 mph 55% 0.00 in 0 W/m2
21:49 16.6 °F 3.3 °F 30.44 in WNW 0.1 mph 2 mph 55% 0.00 in 0 W/m2
21:54 16.6 °F 3.3 °F 30.44 in WNW 0.2 mph 4 mph 55% 0.00 in 0 W/m2
21:59 16.5 °F 3.2 °F 30.44 in WNW 0.1 mph 4 mph 55% 0.00 in 0 W/m2
22:04 16.4 °F 3.2 °F 30.44 in WNW 1.4 mph 7 mph 55.3% 0.00 in 0 W/m2
22:09 16.4 °F 3.2 °F 30.45 in WNW 0.5 mph 7 mph 55.4% 0.00 in 0 W/m2
22:14 16.3 °F 3.2 °F 30.45 in Calm   7 mph 55.6% 0.00 in 0 W/m2
22:19 16.3 °F 3 °F 30.44 in Calm   7 mph 55% 0.00 in 0 W/m2
22:24 16.2 °F 3.3 °F 30.45 in Calm   7 mph 56% 0.00 in 0 W/m2
22:29 16.1 °F 3.2 °F 30.45 in WNW 0.1 mph 7 mph 56% 0.00 in 0 W/m2
22:34 16.1 °F 3.3 °F 30.44 in Calm   7 mph 56.4% 0.00 in 0 W/m2
22:39 15.9 °F 3.4 °F 30.45 in Calm   1 mph 57% 0.00 in 0 W/m2
22:44 15.9 °F 3.3 °F 30.44 in WNW 0.1 mph 2 mph 57% 0.00 in 0 W/m2
22:49 15.7 °F 3.2 °F 30.44 in WNW 0.2 mph 2 mph 57% 0.00 in 0 W/m2
22:54 15.6 °F 3.4 °F 30.44 in WNW 1 mph 6 mph 57.8% 0.00 in 0 W/m2
22:59 15.4 °F 3.5 °F 30.45 in WNW 0.1 mph 6 mph 58.6% 0.00 in 0 W/m2
23:00 15.3 °F 3.6 °F 30.44 in Calm   6 mph 59% 0.00 in 0 W/m2
23:09 15.2 °F 3.3 °F 30.44 in NW 1.2 mph 6 mph 58.5% 0.00 in 0 W/m2
23:14 15.2 °F 3.1 °F 30.44 in NW 0.5 mph 6 mph 58% 0.00 in 0 W/m2
23:19 15.3 °F 3.2 °F 30.44 in NW 2.8 mph 6 mph 58% 0.00 in 0 W/m2
23:24 15.3 °F 3 °F 30.44 in NW 1.1 mph 6 mph 57.3% 0.00 in 0 W/m2
23:29 15.4 °F 2.9 °F 30.45 in NW 0.5 mph 6 mph 57% 0.00 in 0 W/m2
23:34 15.4 °F 2.9 °F 30.45 in NW 0.5 mph 6 mph 56.9% 0.00 in 0 W/m2
23:39 15.4 °F 2.5 °F 30.45 in Calm   5 mph 56% 0.00 in 0 W/m2
23:44 15.4 °F 2.6 °F 30.45 in NW 0.3 mph 5 mph 56.3% 0.00 in 0 W/m2
23:49 15.4 °F 2.9 °F 30.45 in NW 1.1 mph 7 mph 57% 0.00 in 0 W/m2
23:54 15.3 °F 2.9 °F 30.45 in NW 0.6 mph 7 mph 57% 0.00 in 0 W/m2
23:59 15.3 °F 2.8 °F 30.45 in NW 0.1 mph 7 mph 57% 0.00 in 0 W/m2
Hartford County Weather
Compliments of Weather Underground - 2 mb